createdAt,value
2022-08-26T00:01:36.422Z,93710.25
2022-08-26T00:04:03.896Z,93722.03
2022-08-26T00:06:32.424Z,93743.47
2022-08-26T00:08:59.257Z,93734.47
2022-08-26T00:11:27.221Z,93738.75
2022-08-26T00:13:55.607Z,93743.47
2022-08-26T00:16:24.942Z,93729.66
2022-08-26T00:18:53.086Z,93720.56
2022-08-26T00:21:20.815Z,93736.03
2022-08-26T00:23:48.107Z,93696.03
2022-08-26T00:26:15.035Z,93732.28
2022-08-26T00:28:41.555Z,93733.63
2022-08-26T00:31:11.127Z,93713.56
2022-08-26T00:33:38.979Z,93695.09
2022-08-26T00:36:06.381Z,93719.94
2022-08-26T00:38:35.056Z,93735.84
2022-08-26T00:41:05.186Z,93719.38
2022-08-26T00:43:47.593Z,93714.84
2022-08-26T00:46:18.467Z,93699.03
2022-08-26T00:48:49.324Z,93692.88
2022-08-26T00:51:19.680Z,93700.66
2022-08-26T00:53:52.009Z,93688.41
2022-08-26T00:56:26.788Z,93712.78
2022-08-26T00:58:53.743Z,93719.22
2022-08-26T01:01:23.141Z,93714.88
2022-08-26T01:03:50.154Z,93732.97
2022-08-26T01:06:16.652Z,93722.88
2022-08-26T01:08:43.553Z,93702.38
2022-08-26T01:11:11.797Z,93707.34
2022-08-26T01:13:39.679Z,93709.97
2022-08-26T01:16:10.595Z,93691.75
2022-08-26T01:18:39.581Z,93740.06
2022-08-26T01:21:36.303Z,93728.78
2022-08-26T01:24:07.552Z,93702.28
2022-08-26T01:26:43.192Z,93702.25
2022-08-26T01:29:15.800Z,93704.78
2022-08-26T01:31:45.852Z,93723.78
2022-08-26T01:34:38.945Z,93732.50
2022-08-26T01:37:15.822Z,93720.50
2022-08-26T01:39:45.061Z,93720.72
2022-08-26T01:42:14.562Z,93734.31
2022-08-26T01:44:49.057Z,93704.09
2022-08-26T01:47:18.031Z,93708.34
2022-08-26T01:49:47.017Z,93689.09
2022-08-26T01:52:20.485Z,93736.81
2022-08-26T01:54:50.530Z,93713.25
2022-08-26T01:57:20.195Z,93734.47
2022-08-26T01:59:49.143Z,93700.09
2022-08-26T02:02:15.804Z,93710.38
2022-08-26T02:04:58.129Z,93691.81
2022-08-26T02:07:26.771Z,93715.28
2022-08-26T02:09:54.649Z,93707.28
2022-08-26T02:12:21.605Z,93722.28
2022-08-26T02:14:53.243Z,93724.44
2022-08-26T02:17:34.947Z,93705.91
2022-08-26T02:20:02.479Z,93688.53
2022-08-26T02:22:30.797Z,93721.53
2022-08-26T02:25:00.243Z,93710.72
2022-08-26T02:27:33.510Z,93720.47
2022-08-26T02:30:11.460Z,93720.78
2022-08-26T02:32:38.436Z,93715.88
2022-08-26T02:35:08.126Z,93728.13
2022-08-26T02:37:35.213Z,93721.72
2022-08-26T02:40:03.218Z,93716.44
2022-08-26T02:42:29.813Z,93707.78
2022-08-26T02:44:56.276Z,93706.28
2022-08-26T02:47:24.891Z,93640.88
2022-08-26T02:49:51.860Z,93709.38
2022-08-26T02:52:18.644Z,93712.13
2022-08-26T02:54:45.464Z,93715.31
2022-08-26T02:57:12.087Z,93694.28
2022-08-26T02:59:41.762Z,93686.28
2022-08-26T03:02:10.531Z,93693.38
2022-08-26T03:04:38.976Z,93725.63
2022-08-26T03:07:06.562Z,93722.44
2022-08-26T03:09:33.366Z,93693.94
2022-08-26T03:12:00.259Z,93686.84
2022-08-26T03:14:27.180Z,93690.88
2022-08-26T03:16:54.712Z,93702.97
2022-08-26T03:19:23.776Z,93689.50
2022-08-26T03:21:51.760Z,93704.16
2022-08-26T03:24:19.250Z,93699.13
2022-08-26T03:26:52.087Z,93695.69
2022-08-26T03:29:38.577Z,93716.59
2022-08-26T03:32:06.167Z,93716.38
2022-08-26T03:34:32.969Z,93686.53
2022-08-26T03:36:59.437Z,93709.72
2022-08-26T03:39:26.299Z,93706.44
2022-08-26T03:41:53.700Z,93683.09
2022-08-26T03:44:21.099Z,93711.22
2022-08-26T03:46:47.600Z,93669.84
2022-08-26T03:49:15.209Z,93691.56
2022-08-26T03:51:42.167Z,93681.72
2022-08-26T03:54:09.227Z,93694.28
2022-08-26T03:56:36.645Z,93688.34
2022-08-26T03:59:04.279Z,93715.13
2022-08-26T04:01:31.335Z,93671.44
2022-08-26T04:04:00.291Z,93690.75
2022-08-26T04:06:30.598Z,93700.13
2022-08-26T04:08:59.945Z,93703.91
2022-08-26T04:11:32.126Z,93686.97
2022-08-26T04:14:03.880Z,93674.63
2022-08-26T04:16:30.626Z,93687.53
2022-08-26T04:18:58.013Z,93679.88
2022-08-26T04:21:25.916Z,93712.81
2022-08-26T04:23:53.972Z,93698.44
2022-08-26T04:26:22.144Z,93676.00
2022-08-26T04:28:49.973Z,93709.84
2022-08-26T04:31:18.112Z,93691.09
2022-08-26T04:33:47.550Z,93694.44
2022-08-26T04:36:17.435Z,93695.44
2022-08-26T04:38:46.352Z,93704.84
2022-08-26T04:41:15.446Z,93702.09
2022-08-26T04:43:43.491Z,93669.59
2022-08-26T04:46:13.024Z,93707.22
2022-08-26T04:48:41.300Z,93711.22
2022-08-26T04:51:09.787Z,93710.41
2022-08-26T04:53:36.994Z,93690.84
2022-08-26T04:56:04.524Z,93708.00
2022-08-26T04:58:31.866Z,93673.78
2022-08-26T05:00:58.528Z,93673.22
2022-08-26T05:03:30.291Z,93689.91
2022-08-26T05:05:58.007Z,93686.31
2022-08-26T05:08:24.576Z,93675.31
2022-08-26T05:10:56.725Z,93698.03
2022-08-26T05:13:27.431Z,93670.53
2022-08-26T05:15:54.337Z,93681.25
2022-08-26T05:18:23.454Z,93698.59
2022-08-26T05:20:54.557Z,93700.34
2022-08-26T05:23:23.198Z,93696.34
2022-08-26T05:25:55.834Z,93697.47
2022-08-26T05:28:26.287Z,93699.28
2022-08-26T05:30:52.885Z,93674.84
2022-08-26T05:33:19.659Z,93678.78
2022-08-26T05:35:46.728Z,93699.41
2022-08-26T05:38:17.414Z,93667.59
2022-08-26T05:40:47.135Z,93703.34
2022-08-26T05:43:14.373Z,93707.19
2022-08-26T05:45:46.261Z,93702.78
2022-08-26T05:48:14.542Z,93689.50
2022-08-26T05:50:47.309Z,93691.97
2022-08-26T05:53:16.416Z,93708.78
2022-08-26T05:55:47.898Z,93705.34
2022-08-26T05:58:15.008Z,93688.94
2022-08-26T06:00:44.585Z,93675.81
2022-08-26T06:03:11.231Z,93701.44
2022-08-26T06:05:41.647Z,93707.44
2022-08-26T06:08:11.526Z,93682.88
2022-08-26T06:10:50.939Z,93676.41
2022-08-26T06:13:21.341Z,93714.81
2022-08-26T06:15:50.160Z,93719.19
2022-08-26T06:18:20.220Z,93714.91
2022-08-26T06:20:54.614Z,93720.41
2022-08-26T06:23:42.669Z,93683.38
2022-08-26T06:26:11.056Z,93709.03
2022-08-26T06:28:37.792Z,93696.41
2022-08-26T06:31:04.507Z,93711.59
2022-08-26T06:33:32.411Z,93720.47
2022-08-26T06:35:58.983Z,93714.19
2022-08-26T06:38:25.428Z,93705.19
2022-08-26T06:40:54.859Z,93696.16
2022-08-26T06:43:23.790Z,93733.22
2022-08-26T06:45:51.275Z,93729.81
2022-08-26T06:48:20.864Z,93738.34
2022-08-26T06:50:48.231Z,93717.41
2022-08-26T06:53:17.132Z,93731.19
2022-08-26T06:55:46.111Z,93696.09
2022-08-26T06:58:14.184Z,93723.50
2022-08-26T07:00:41.689Z,93696.66
2022-08-26T07:03:14.101Z,93706.50
2022-08-26T07:05:40.713Z,93710.25
2022-08-26T07:08:07.156Z,93726.31
2022-08-26T07:10:35.549Z,93723.13
2022-08-26T07:13:02.571Z,93716.78
2022-08-26T07:15:31.365Z,93724.78
2022-08-26T07:17:58.116Z,93704.59
2022-08-26T07:20:24.596Z,93705.16
2022-08-26T07:22:51.452Z,93712.59
2022-08-26T07:25:19.298Z,93729.63
2022-08-26T07:27:46.796Z,93719.00
2022-08-26T07:30:20.770Z,93720.06
2022-08-26T07:32:47.472Z,93738.69
2022-08-26T07:35:14.640Z,93706.78
2022-08-26T07:37:42.399Z,93713.72
2022-08-26T07:40:09.837Z,93729.69
2022-08-26T07:42:36.337Z,93719.09
2022-08-26T07:45:02.955Z,93741.41
2022-08-26T07:47:31.469Z,93733.97
2022-08-26T07:49:58.813Z,93739.25
2022-08-26T07:52:29.001Z,93730.22
2022-08-26T07:55:01.031Z,93706.31
2022-08-26T07:57:28.672Z,93718.56
2022-08-26T07:59:55.787Z,93727.06
2022-08-26T08:02:23.327Z,93711.66
2022-08-26T08:04:49.858Z,93711.13
2022-08-26T08:07:16.540Z,93729.66
2022-08-26T08:09:43.015Z,93727.56
2022-08-26T08:12:09.517Z,93721.69
2022-08-26T08:14:41.015Z,93737.13
2022-08-26T08:17:08.457Z,93709.97
2022-08-26T08:19:36.710Z,93729.59
2022-08-26T08:22:05.161Z,93721.84
2022-08-26T08:24:43.784Z,93706.16
2022-08-26T08:27:10.697Z,93708.28
2022-08-26T08:29:37.508Z,93734.75
2022-08-26T08:32:04.966Z,93734.25
2022-08-26T08:34:31.531Z,93729.72
2022-08-26T08:36:58.302Z,93739.03
2022-08-26T08:39:26.012Z,93735.75
2022-08-26T08:42:32.383Z,93705.53
2022-08-26T08:45:06.271Z,93709.28
2022-08-26T08:47:38.748Z,93736.84
2022-08-26T08:50:17.403Z,93722.38
2022-08-26T08:52:49.366Z,93722.91
2022-08-26T08:55:18.267Z,93708.03
2022-08-26T08:58:02.181Z,93730.28
2022-08-26T09:00:39.683Z,93701.06
2022-08-26T09:03:17.065Z,93732.91
2022-08-26T09:05:48.780Z,93700.59
2022-08-26T09:08:21.595Z,93712.78
2022-08-26T09:10:53.943Z,93717.94
2022-08-26T09:13:25.362Z,93704.19
2022-08-26T09:16:31.276Z,93722.66
2022-08-26T09:19:22.712Z,93719.84
2022-08-26T09:22:00.250Z,93714.78
2022-08-26T09:24:29.387Z,93722.22
2022-08-26T09:26:58.186Z,93697.84
2022-08-26T09:29:27.772Z,93692.28
2022-08-26T09:32:22.056Z,93709.59
2022-08-26T09:35:01.137Z,93690.88
2022-08-26T09:40:59.168Z,93698.25
2022-08-26T09:43:28.398Z,93701.28
2022-08-26T09:46:12.442Z,93667.31
2022-08-26T09:48:40.580Z,93698.41
2022-08-26T09:51:28.082Z,93677.38
2022-08-26T09:54:00.660Z,93666.25
2022-08-26T09:56:34.634Z,93686.78
2022-08-26T09:59:02.187Z,93685.41
2022-08-26T10:01:32.148Z,93673.94
2022-08-26T10:04:07.334Z,93674.25
2022-08-26T10:06:39.187Z,93676.94
2022-08-26T10:09:09.684Z,93654.88
2022-08-26T10:11:44.425Z,93650.53
2022-08-26T10:14:17.467Z,93633.53
2022-08-26T10:17:08.920Z,93622.53
2022-08-26T10:19:41.627Z,93661.13
2022-08-26T10:22:49.064Z,93658.22
2022-08-26T10:25:23.061Z,93645.69
2022-08-26T10:28:11.890Z,93650.41
2022-08-26T10:30:46.916Z,93647.66
2022-08-26T10:33:15.453Z,93644.97
2022-08-26T10:35:56.735Z,93648.44
2022-08-26T10:38:34.283Z,93630.34
2022-08-26T10:41:13.688Z,93642.81
2022-08-26T10:43:50.484Z,93641.50
2022-08-26T10:46:22.436Z,93644.84
2022-08-26T10:49:00.021Z,93641.50
2022-08-26T10:51:36.495Z,93631.03
2022-08-26T10:54:50.844Z,93647.31
2022-08-26T10:57:25.309Z,93630.84
2022-08-26T11:00:22.813Z,93635.69
2022-08-26T11:02:55.080Z,93627.94
2022-08-26T11:05:23.609Z,93617.19
2022-08-26T11:08:13.587Z,93623.50
2022-08-26T11:10:53.577Z,93620.69
2022-08-26T11:13:20.020Z,93586.38
2022-08-26T11:15:58.603Z,93620.34
2022-08-26T11:18:40.326Z,93586.66
2022-08-26T11:21:44.950Z,93611.03
2022-08-26T11:24:40.631Z,93610.50
2022-08-26T11:27:12.175Z,93603.44
2022-08-26T11:29:56.385Z,93612.69
2022-08-26T11:32:34.916Z,93604.31
2022-08-26T11:35:06.743Z,93593.72
2022-08-26T11:37:41.225Z,93604.16
2022-08-26T11:40:12.255Z,93604.97
2022-08-26T11:42:49.918Z,93596.09
2022-08-26T11:45:24.332Z,93596.56
2022-08-26T11:47:51.207Z,93554.69
2022-08-26T11:50:26.784Z,93576.84
2022-08-26T11:53:04.726Z,93591.19
2022-08-26T11:55:37.151Z,93579.59
2022-08-26T11:58:05.077Z,93583.09
2022-08-26T12:00:52.411Z,93586.31
2022-08-26T12:03:22.995Z,93563.44
2022-08-26T12:05:52.022Z,93566.16
2022-08-26T12:08:23.412Z,93590.47
2022-08-26T12:11:10.044Z,93585.38
2022-08-26T12:13:39.091Z,93567.91
2022-08-26T12:16:06.624Z,93575.97
2022-08-26T12:18:37.521Z,93573.59
2022-08-26T12:21:16.178Z,93558.19
2022-08-26T12:23:47.980Z,93549.13
2022-08-26T12:26:21.559Z,93533.34
2022-08-26T12:29:26.754Z,93580.59
2022-08-26T12:32:11.083Z,93571.59
2022-08-26T12:34:37.869Z,93553.28
2022-08-26T12:37:04.556Z,93533.84
2022-08-26T12:39:37.595Z,93562.13
2022-08-26T12:42:07.788Z,93555.50
2022-08-26T12:44:54.313Z,93532.09
2022-08-26T12:47:35.133Z,93560.25
2022-08-26T12:50:33.488Z,93557.84
2022-08-26T12:53:01.428Z,93554.53
2022-08-26T12:55:39.395Z,93540.81
2022-08-26T12:58:13.473Z,93547.78
2022-08-26T13:00:41.780Z,93549.16
2022-08-26T13:03:28.432Z,93543.00
2022-08-26T13:06:15.688Z,93518.22
2022-08-26T13:08:48.297Z,93542.34
2022-08-26T13:11:21.219Z,93525.13
2022-08-26T13:14:23.680Z,93528.00
2022-08-26T13:16:51.418Z,93502.88
2022-08-26T13:19:25.519Z,93506.84
2022-08-26T13:22:01.494Z,93514.69
2022-08-26T13:24:34.451Z,93510.31
2022-08-26T13:27:02.120Z,93515.69
2022-08-26T13:29:28.713Z,93486.47
2022-08-26T13:31:55.513Z,93489.78
2022-08-26T13:34:23.365Z,93479.06
2022-08-26T13:36:54.031Z,93484.25
2022-08-26T13:39:21.630Z,93507.38
2022-08-26T13:41:48.250Z,93495.28
2022-08-26T13:44:14.780Z,93490.00
2022-08-26T13:46:41.773Z,93485.88
2022-08-26T13:49:09.156Z,93501.97
2022-08-26T13:51:37.616Z,93501.16
2022-08-26T13:54:05.124Z,93470.63
2022-08-26T13:56:32.722Z,93497.81
2022-08-26T13:59:01.128Z,93510.28
2022-08-26T14:01:29.345Z,93496.41
2022-08-26T14:03:55.824Z,93479.34
2022-08-26T14:06:22.356Z,93469.72
2022-08-26T14:08:49.373Z,93461.84
2022-08-26T14:11:15.840Z,93470.34
2022-08-26T14:13:42.308Z,93472.72
2022-08-26T14:16:13.378Z,93469.56
2022-08-26T14:18:43.048Z,93468.44
2022-08-26T14:21:13.387Z,93494.66
2022-08-26T14:23:40.206Z,93475.09
2022-08-26T14:26:11.002Z,93469.56
2022-08-26T14:28:55.181Z,93458.47
2022-08-26T14:31:24.175Z,93465.16
2022-08-26T14:33:50.780Z,93467.50
2022-08-26T14:36:29.108Z,93453.59
2022-08-26T14:39:00.104Z,93464.03
2022-08-26T14:41:27.109Z,93462.84
2022-08-26T14:44:00.376Z,93466.63
2022-08-26T14:46:30.183Z,93468.75
2022-08-26T14:49:01.477Z,93466.63
2022-08-26T14:51:28.501Z,93474.41
2022-08-26T14:54:13.114Z,93456.91
2022-08-26T14:56:44.791Z,93477.63
2022-08-26T14:59:13.552Z,93480.50
2022-08-26T15:01:40.086Z,93461.28
2022-08-26T15:04:06.887Z,93469.75
2022-08-26T15:06:34.753Z,93450.44
2022-08-26T15:09:01.482Z,93456.38
2022-08-26T15:11:27.952Z,93455.25
2022-08-26T15:13:54.585Z,93454.69
2022-08-26T15:16:22.658Z,93468.38
2022-08-26T15:18:51.214Z,93430.19
2022-08-26T15:21:19.364Z,93463.91
2022-08-26T15:23:48.014Z,93464.31
2022-08-26T15:26:15.540Z,93444.84
2022-08-26T15:28:42.228Z,93437.44
2022-08-26T15:31:09.349Z,93425.16
2022-08-26T15:33:37.735Z,93459.34
2022-08-26T15:36:05.754Z,93453.97
2022-08-26T15:38:35.407Z,93448.34
2022-08-26T15:41:04.308Z,93439.53
2022-08-26T15:43:30.799Z,93448.44
2022-08-26T15:45:57.781Z,93436.91
2022-08-26T15:48:24.603Z,93434.56
2022-08-26T15:50:53.812Z,93393.69
2022-08-26T15:53:21.921Z,93461.63
2022-08-26T15:55:48.599Z,93456.75
2022-08-26T15:58:16.892Z,93454.72
2022-08-26T16:00:44.218Z,93440.50
2022-08-26T16:03:10.657Z,93438.47
2022-08-26T16:05:41.634Z,93471.69
2022-08-26T16:08:08.244Z,93431.59
2022-08-26T16:10:37.052Z,93459.44
2022-08-26T16:13:04.412Z,93419.56
2022-08-26T16:15:34.375Z,93461.88
2022-08-26T16:18:02.288Z,93434.38
2022-08-26T16:20:30.071Z,93431.59
2022-08-26T16:22:56.563Z,93441.53
2022-08-26T16:25:23.097Z,93439.84
2022-08-26T16:27:49.577Z,93450.53
2022-08-26T16:30:16.444Z,93460.00
2022-08-26T16:32:42.890Z,93437.97
2022-08-26T16:35:09.579Z,93449.47
2022-08-26T16:37:37.760Z,93467.75
2022-08-26T16:40:07.185Z,93479.75
2022-08-26T16:42:33.657Z,93476.97
2022-08-26T16:45:00.142Z,93464.91
2022-08-26T16:47:27.059Z,93465.06
2022-08-26T16:49:53.643Z,93463.03
2022-08-26T16:52:20.248Z,93466.59
2022-08-26T16:54:47.838Z,93476.69
2022-08-26T16:57:14.295Z,93486.88
2022-08-26T16:59:41.729Z,93492.03
2022-08-26T17:02:08.532Z,93486.72
2022-08-26T17:04:34.990Z,93496.63
2022-08-26T17:07:01.447Z,93482.47
2022-08-26T17:09:27.984Z,93486.06
2022-08-26T17:11:54.691Z,93464.97
2022-08-26T17:14:21.447Z,93506.25
2022-08-26T17:16:51.128Z,93482.88
2022-08-26T17:19:19.351Z,93509.88
2022-08-26T17:21:46.929Z,93503.66
2022-08-26T17:24:13.997Z,93498.69
2022-08-26T17:26:44.184Z,93476.19
2022-08-26T17:29:14.922Z,93499.97
2022-08-26T17:31:41.495Z,93487.41
2022-08-26T17:34:10.004Z,93483.94
2022-08-26T17:36:36.432Z,93497.63
2022-08-26T17:39:03.501Z,93490.53
2022-08-26T17:41:30.495Z,93480.56
2022-08-26T17:43:57.149Z,93484.66
2022-08-26T17:46:24.517Z,93508.63
2022-08-26T17:48:51.085Z,93484.56
2022-08-26T17:51:19.444Z,93513.44
2022-08-26T17:53:46.732Z,93523.94
2022-08-26T17:56:16.232Z,93522.34
2022-08-26T17:58:50.928Z,93525.59
2022-08-26T18:01:18.080Z,93521.63
2022-08-26T18:03:44.543Z,93523.38
2022-08-26T18:06:12.975Z,93513.63
2022-08-26T18:08:40.706Z,93545.44
2022-08-26T18:11:12.069Z,93547.22
2022-08-26T18:13:45.837Z,93519.31
2022-08-26T18:16:15.099Z,93533.72
2022-08-26T18:18:42.218Z,93534.41
2022-08-26T18:21:18.097Z,93548.13
2022-08-26T18:23:45.989Z,93553.31
2022-08-26T18:26:21.596Z,93547.94
2022-08-26T18:28:48.373Z,93517.34
2022-08-26T18:31:15.383Z,93534.88
2022-08-26T18:33:43.040Z,93562.59
2022-08-26T18:36:24.699Z,93528.28
2022-08-26T18:38:52.104Z,93524.19
2022-08-26T18:41:20.989Z,93558.91
2022-08-26T18:43:50.348Z,93556.06
2022-08-26T18:46:18.055Z,93563.50
2022-08-26T18:48:44.589Z,93522.94
2022-08-26T18:51:20.672Z,93552.09
2022-08-26T18:53:47.573Z,93525.88
2022-08-26T18:56:16.651Z,93522.16
2022-08-26T18:58:45.191Z,93527.72
2022-08-26T19:01:13.107Z,93540.19
2022-08-26T19:03:39.796Z,93524.28
2022-08-26T19:06:06.672Z,93549.72
2022-08-26T19:08:33.086Z,93516.31
2022-08-26T19:11:00.033Z,93527.44
2022-08-26T19:13:26.651Z,93528.50
2022-08-26T19:15:53.060Z,93521.09
2022-08-26T19:18:19.903Z,93529.50
2022-08-26T19:20:47.862Z,93572.50
2022-08-26T19:23:30.813Z,93552.28
2022-08-26T19:25:58.501Z,93566.88
2022-08-26T19:28:24.958Z,93557.56
2022-08-26T19:30:53.363Z,93563.88
2022-08-26T19:33:20.104Z,93567.59
2022-08-26T19:35:46.575Z,93591.59
2022-08-26T19:38:13.992Z,93590.72
2022-08-26T19:40:40.470Z,93590.44
2022-08-26T19:43:07.157Z,93588.91
2022-08-26T19:45:34.529Z,93569.16
2022-08-26T19:48:01.104Z,93561.78
2022-08-26T19:50:30.174Z,93545.91
2022-08-26T19:52:57.391Z,93567.59
2022-08-26T19:55:24.689Z,93573.94
2022-08-26T19:57:52.358Z,93597.38
2022-08-26T20:00:23.783Z,93618.97
2022-08-26T20:02:51.047Z,93600.97
2022-08-26T20:05:20.414Z,93609.28
2022-08-26T20:07:48.122Z,93614.31
2022-08-26T20:10:16.835Z,93601.63
2022-08-26T20:12:43.489Z,93609.34
2022-08-26T20:15:12.098Z,93619.09
2022-08-26T20:17:39.260Z,93597.38
2022-08-26T20:20:33.446Z,93616.56
2022-08-26T20:23:01.335Z,93620.25
2022-08-26T20:25:28.352Z,93611.78
2022-08-26T20:27:54.823Z,93627.19
2022-08-26T20:30:21.318Z,93648.97
2022-08-26T20:32:48.366Z,93643.66
2022-08-26T20:35:15.149Z,93639.97
2022-08-26T20:37:42.852Z,93618.72
2022-08-26T20:40:12.579Z,93625.63
2022-08-26T20:42:39.095Z,93629.63
2022-08-26T20:45:07.120Z,93660.06
2022-08-26T20:47:33.743Z,93638.84
2022-08-26T20:50:00.219Z,93642.03
2022-08-26T20:52:26.640Z,93653.19
2022-08-26T20:54:53.048Z,93626.13
2022-08-26T20:57:19.544Z,93639.13
2022-08-26T20:59:45.987Z,93624.41
2022-08-26T21:02:12.423Z,93642.41
2022-08-26T21:04:38.952Z,93661.50
2022-08-26T21:07:05.545Z,93649.25
2022-08-26T21:09:32.455Z,93661.84
2022-08-26T21:11:59.176Z,93702.28
2022-08-26T21:14:26.139Z,93714.41
2022-08-26T21:16:52.932Z,93690.38
2022-08-26T21:19:19.512Z,93708.75
2022-08-26T21:21:47.977Z,93723.50
2022-08-26T21:24:14.563Z,93721.59
2022-08-26T21:26:41.463Z,93740.78
2022-08-26T21:29:09.733Z,93733.84
2022-08-26T21:31:39.975Z,93762.94
2022-08-26T21:34:09.063Z,93738.72
2022-08-26T21:36:35.949Z,93774.22
2022-08-26T21:39:02.433Z,93769.78
2022-08-26T21:41:28.876Z,93785.81
2022-08-26T21:43:59.146Z,93796.50
2022-08-26T21:46:29.025Z,93762.81
2022-08-26T21:48:56.829Z,93785.41
2022-08-26T21:51:25.700Z,93777.66
2022-08-26T21:53:52.992Z,93737.91
2022-08-26T21:56:20.696Z,93773.06
2022-08-26T21:58:47.250Z,93769.56
2022-08-26T22:01:17.716Z,93783.84
2022-08-26T22:03:47.623Z,93809.91
2022-08-26T22:06:19.591Z,93807.53
2022-08-26T22:08:46.095Z,93798.09
2022-08-26T22:11:13.217Z,93811.06
2022-08-26T22:13:41.548Z,93792.19
2022-08-26T22:16:08.699Z,93789.13
2022-08-26T22:18:36.056Z,93749.59
2022-08-26T22:21:06.524Z,93792.34
2022-08-26T22:23:32.996Z,93772.94
2022-08-26T22:26:00.013Z,93797.31
2022-08-26T22:28:28.136Z,93802.75
2022-08-26T22:30:55.628Z,93777.31
2022-08-26T22:33:22.908Z,93769.47
2022-08-26T22:35:51.914Z,93799.22
2022-08-26T22:38:19.117Z,93790.84
2022-08-26T22:40:50.817Z,93787.06
2022-08-26T22:43:18.878Z,93771.22
2022-08-26T22:45:47.316Z,93778.75
2022-08-26T22:48:16.771Z,93785.28
2022-08-26T22:50:45.756Z,93785.94
2022-08-26T22:53:12.908Z,93753.81
2022-08-26T22:55:39.398Z,93763.41
2022-08-26T22:58:06.244Z,93776.50
2022-08-26T23:00:34.223Z,93771.41
2022-08-26T23:03:02.134Z,93731.69
2022-08-26T23:05:29.511Z,93735.19
2022-08-26T23:07:56.736Z,93725.72
2022-08-26T23:10:23.333Z,93728.44
2022-08-26T23:12:50.494Z,93765.88
2022-08-26T23:15:16.905Z,93725.28
2022-08-26T23:17:44.956Z,93751.25
2022-08-26T23:20:13.514Z,93734.56
2022-08-26T23:22:40.263Z,93733.16
2022-08-26T23:25:09.696Z,93730.47
2022-08-26T23:27:39.255Z,93719.22
2022-08-26T23:30:15.237Z,93753.56
2022-08-26T23:32:41.780Z,93729.13
2022-08-26T23:35:09.340Z,93758.94
2022-08-26T23:37:42.588Z,93736.03
2022-08-26T23:40:17.075Z,93736.38
2022-08-26T23:42:44.278Z,93723.56
2022-08-26T23:45:12.815Z,93717.16
2022-08-26T23:47:40.865Z,93745.09
2022-08-26T23:50:08.604Z,93751.88
2022-08-26T23:52:53.910Z,93747.72
2022-08-26T23:55:20.525Z,93745.31
2022-08-26T23:57:46.948Z,93730.94
